Terminal Aerodrome Forecast
Issued by NWS St Louis, MO

Home | Current Version | Previous Version | Text Only | Print | Product List | Glossary On
Versions: 1 2 3 4 5 6 7 8 9 10 11 12 13 14 15 16 17 18 19 20 21
000
FTUS43 KLSX 242300 RRA
TAFCOU
TAF
KCOU 242343Z 2500/2524 25010KT P6SM BKN250
     FM250200 22008KT P6SM BKN120
     FM250800 25010KT P6SM -RA OVC040
     FM251100 26012KT 4SM -RA BR OVC012
     FM251400 29015KT P6SM VCSH OVC012
     FM251900 34015G25KT 3SM -RASN BR SCT006 OVC012=

USA.gov is the U.S. government's official web portal to all federal, state and local government web resources and services.